Time;durP1;ratioP1;P1;durP2;ratioP2;P2;SDS_P1;SDS_P2;PMS_P1;PMS_P2;Temp;Humidity;BMP_temperature;BMP_pressure;BME280_temperature;BME280_humidity;BME280_pressure;Samples;Min_cycle;Max_cycle;Signal;HPM_P1;HPM_P2
2021/09/01 00:00:27;;;;;;;6.03;4.57;;;;;;;12.47;70.39;101401.38;4919740;28;126744;-69
2021/09/01 00:02:54;;;;;;;5.80;3.97;;;;;;;12.45;70.65;101396.22;4919335;28;126782;-63
2021/09/01 00:05:21;;;;;;;8.32;4.07;;;;;;;12.43;70.56;101400.25;4904176;28;98067;-69
2021/09/01 00:07:47;;;;;;;6.90;4.40;;;;;;;12.41;70.79;101411.31;4902596;28;122338;-62
2021/09/01 00:10:13;;;;;;;9.73;4.85;;;;;;;12.38;70.45;101408.31;4899203;28;98474;-70
2021/09/01 00:12:43;;;;;;;5.30;4.50;;;;;;;12.36;70.63;101413.97;4888389;28;100165;-70
2021/09/01 00:15:10;;;;;;;6.53;4.82;;;;;;;12.32;70.50;101410.16;4903703;28;98563;-63
2021/09/01 00:17:37;;;;;;;7.13;4.30;;;;;;;12.32;70.79;101409.34;4906300;28;97977;-69
2021/09/01 00:20:08;;;;;;;6.65;4.38;;;;;;;12.26;70.67;101406.59;4905543;28;98989;-63
2021/09/01 00:22:34;;;;;;;6.10;4.65;;;;;;;12.27;70.73;101407.41;4905213;28;99305;-70
2021/09/01 00:25:00;;;;;;;5.85;4.45;;;;;;;12.25;70.72;101413.06;4891392;28;112801;-63
2021/09/01 00:27:26;;;;;;;6.43;4.30;;;;;;;12.24;70.70;101413.31;4886025;28;103687;-69
2021/09/01 00:29:52;;;;;;;7.28;4.57;;;;;;;12.23;70.98;101411.69;4886535;28;126767;-63
2021/09/01 00:32:18;;;;;;;8.50;4.47;;;;;;;12.20;70.52;101410.31;4884786;28;123477;-63
2021/09/01 00:34:44;;;;;;;5.80;4.78;;;;;;;12.20;70.70;101415.72;4899544;28;126886;-69
2021/09/01 00:37:10;;;;;;;5.90;4.28;;;;;;;12.18;70.57;101408.94;4881142;28;123243;-63
2021/09/01 00:39:36;;;;;;;6.55;4.45;;;;;;;12.18;70.40;101414.31;4893482;28;125794;-70
2021/09/01 00:42:07;;;;;;;7.30;4.53;;;;;;;12.15;70.74;101425.69;4883407;28;126334;-69
2021/09/01 00:44:33;;;;;;;9.50;4.63;;;;;;;12.13;70.70;101423.22;4916448;28;98726;-69
2021/09/01 00:46:59;;;;;;;6.68;4.55;;;;;;;12.12;70.76;101424.28;4897797;28;98564;-69
2021/09/01 00:49:29;;;;;;;7.82;4.63;;;;;;;12.09;70.76;101424.78;4882943;28;98478;-70
2021/09/01 00:51:55;;;;;;;6.78;4.20;;;;;;;12.09;70.70;101427.50;4882394;28;110423;-69
2021/09/01 00:54:23;;;;;;;8.32;5.18;;;;;;;12.09;70.94;101423.97;4883215;28;97733;-69
2021/09/01 00:56:52;;;;;;;7.32;4.80;;;;;;;12.06;70.85;101429.88;4882257;28;105096;-70
2021/09/01 00:59:20;;;;;;;7.30;4.78;;;;;;;12.06;70.69;101424.47;4882666;28;98680;-69
2021/09/01 01:01:50;;;;;;;7.35;4.82;;;;;;;12.02;70.78;101421.47;4898550;28;120661;-63
2021/09/01 01:04:16;;;;;;;7.88;4.70;;;;;;;12.01;70.90;101428.75;4885079;28;98217;-63
2021/09/01 01:06:42;;;;;;;5.63;4.80;;;;;;;11.98;71.01;101428.44;4897672;28;98096;-69
2021/09/01 01:09:08;;;;;;;6.55;4.50;;;;;;;11.97;70.87;101430.34;4901897;28;98848;-70
2021/09/01 01:11:35;;;;;;;7.78;5.00;;;;;;;11.95;70.88;101427.09;4915238;28;115892;-70
2021/09/01 01:14:01;;;;;;;7.35;4.53;;;;;;;11.93;70.78;101425.69;4894214;28;100932;-69
2021/09/01 01:16:27;;;;;;;7.78;4.40;;;;;;;11.91;71.20;101427.84;4899775;28;120811;-69
2021/09/01 01:18:59;;;;;;;5.57;4.65;;;;;;;11.91;70.95;101425.16;4900549;28;98557;-63
2021/09/01 01:21:29;;;;;;;7.22;4.55;;;;;;;11.97;71.17;101432.22;4915293;28;98874;-69
2021/09/01 01:24:02;;;;;;;8.48;4.88;;;;;;;12.01;70.86;101428.75;4896098;28;98102;-62
2021/09/01 01:26:29;;;;;;;6.70;4.63;;;;;;;12.06;70.82;101433.41;4881792;28;104346;-62
2021/09/01 01:29:01;;;;;;;6.68;4.60;;;;;;;12.09;70.67;101432.09;4881753;28;128723;-69
2021/09/01 01:31:27;;;;;;;5.63;4.47;;;;;;;12.11;70.42;101428.06;4881962;28;98340;-69
2021/09/01 01:33:53;;;;;;;6.20;4.72;;;;;;;12.13;70.48;101439.44;4886311;28;98099;-69
2021/09/01 01:36:19;;;;;;;6.63;4.47;;;;;;;12.15;70.49;101431.06;4890398;28;97745;-69
2021/09/01 01:38:45;;;;;;;6.45;4.45;;;;;;;12.15;70.46;101433.78;4880504;28;106325;-69
2021/09/01 01:41:11;;;;;;;5.80;4.28;;;;;;;12.15;70.47;101434.59;4879909;28;126888;-69
2021/09/01 01:43:38;;;;;;;8.10;4.90;;;;;;;12.15;70.39;101434.59;4881628;28;115826;-63
2021/09/01 01:46:05;;;;;;;5.97;4.40;;;;;;;12.17;70.47;101428.91;4882450;28;98422;-69
2021/09/01 01:48:35;;;;;;;8.73;4.80;;;;;;;12.16;70.36;101430.81;4881648;28;98735;-69
2021/09/01 01:51:01;;;;;;;6.60;4.60;;;;;;;12.14;70.45;101432.13;4895842;28;98550;-62
2021/09/01 01:53:28;;;;;;;9.27;4.88;;;;;;;12.15;70.59;101434.59;4899615;28;99853;-63
2021/09/01 01:55:54;;;;;;;5.65;4.30;;;;;;;12.14;70.33;101432.13;4901516;28;98192;-63
2021/09/01 01:58:20;;;;;;;8.75;4.75;;;;;;;12.13;70.23;101435.91;4899900;28;128095;-70
2021/09/01 02:00:46;;;;;;;8.50;4.72;;;;;;;12.11;70.35;101430.78;4903846;28;128256;-69
2021/09/01 02:03:12;;;;;;;5.95;4.90;;;;;;;12.11;70.00;101440.75;4898359;28;127892;-63
2021/09/01 02:05:38;;;;;;;5.97;4.63;;;;;;;12.08;70.47;101442.09;4865006;28;97982;-63
2021/09/01 02:08:05;;;;;;;6.60;4.18;;;;;;;12.03;70.41;101434.75;4891837;28;104998;-63
2021/09/01 02:10:31;;;;;;;6.80;4.40;;;;;;;12.03;70.31;101439.34;4890336;28;98348;-63
2021/09/01 02:12:57;;;;;;;5.55;4.50;;;;;;;12.01;70.51;101438.75;4881318;28;99635;-70
2021/09/01 02:15:23;;;;;;;5.80;4.80;;;;;;;11.97;70.22;101427.63;4882269;28;98081;-63
2021/09/01 02:17:49;;;;;;;8.52;4.90;;;;;;;11.96;70.53;101436.81;4898079;28;110966;-70
2021/09/01 02:20:16;;;;;;;6.13;4.75;;;;;;;11.95;70.46;101431.69;4883217;28;116246;-70
2021/09/01 02:22:42;;;;;;;7.57;4.75;;;;;;;11.95;70.24;101437.09;4880954;28;108744;-63
2021/09/01 02:25:09;;;;;;;6.45;4.80;;;;;;;11.91;70.06;101419.75;4895753;28;97804;-70
2021/09/01 02:27:35;;;;;;;6.53;4.63;;;;;;;11.90;70.62;101431.59;4900968;28;98907;-63
2021/09/01 02:30:02;;;;;;;6.93;4.28;;;;;;;11.89;70.16;101430.78;4899938;28;126320;-69
2021/09/01 02:32:28;;;;;;;6.97;5.38;;;;;;;11.86;70.63;101433.97;4895684;28;98057;-69
2021/09/01 02:34:54;;;;;;;7.32;4.75;;;;;;;11.85;70.08;101437.75;4880708;28;123917;-63
2021/09/01 02:37:20;;;;;;;6.90;5.20;;;;;;;11.82;70.53;101445.53;4880947;28;99305;-69
2021/09/01 02:39:46;;;;;;;8.05;5.50;;;;;;;11.77;70.28;101452.50;4889235;28;128422;-63
2021/09/01 02:42:12;;;;;;;7.25;5.10;;;;;;;11.74;70.45;101446.78;4884462;28;97891;-69
2021/09/01 02:44:38;;;;;;;6.88;5.28;;;;;;;11.71;70.48;101441.88;4881815;28;97743;-69
2021/09/01 02:47:04;;;;;;;7.13;5.07;;;;;;;11.67;70.55;101446.97;4879236;28;126882;-69
2021/09/01 02:49:30;;;;;;;6.47;5.20;;;;;;;11.64;70.54;101444.78;4890001;28;129175;-69
2021/09/01 02:51:56;;;;;;;7.85;5.20;;;;;;;11.61;70.56;101439.06;4880112;28;127682;-69
2021/09/01 02:54:22;;;;;;;8.10;5.35;;;;;;;11.59;70.89;101427.66;4881499;28;124486;-69
2021/09/01 02:56:48;;;;;;;6.03;5.18;;;;;;;11.58;70.59;101428.75;4862257;28;126379;-63
2021/09/01 02:59:14;;;;;;;6.32;4.75;;;;;;;11.55;70.75;101424.66;4882357;28;130338;-69
2021/09/01 03:01:41;;;;;;;7.70;4.93;;;;;;;11.54;70.81;101423.03;4896528;28;126743;-63
2021/09/01 03:04:07;;;;;;;5.45;4.70;;;;;;;11.54;71.01;101425.72;4901047;28;98078;-69
2021/09/01 03:06:33;;;;;;;7.68;4.80;;;;;;;11.55;70.95;101424.66;4898069;28;98511;-63
2021/09/01 03:09:00;;;;;;;6.70;5.05;;;;;;;11.57;70.57;101435.22;4914349;28;99463;-69
2021/09/01 03:11:26;;;;;;;7.15;5.10;;;;;;;11.55;71.32;101425.50;4898430;28;125454;-69
2021/09/01 03:13:52;;;;;;;8.70;4.78;;;;;;;11.57;70.81;101430.63;4893304;28;98200;-69
2021/09/01 03:16:18;;;;;;;7.72;4.97;;;;;;;11.58;70.94;101426.03;4878882;28;126323;-70
2021/09/01 03:18:44;;;;;;;6.88;5.05;;;;;;;11.59;71.03;101436.59;4880348;28;126556;-69
2021/09/01 03:21:11;;;;;;;5.55;4.45;;;;;;;11.58;71.18;101432.25;4879908;28;126585;-63
2021/09/01 03:23:37;;;;;;;7.03;5.25;;;;;;;11.60;70.61;101435.53;4891888;28;98258;-70
2021/09/01 03:26:04;;;;;;;5.65;4.65;;;;;;;11.58;70.61;101436.84;4899480;28;98094;-63
2021/09/01 03:28:30;;;;;;;7.65;5.50;;;;;;;11.55;71.25;101433.59;4899282;28;109019;-63
2021/09/01 03:30:56;;;;;;;8.05;5.32;;;;;;;11.53;70.69;101430.31;4893493;28;98511;-63
2021/09/01 03:33:22;;;;;;;7.53;5.38;;;;;;;11.51;71.06;101432.47;4880665;28;121773;-69
2021/09/01 03:35:48;;;;;;;7.32;4.85;;;;;;;11.50;70.33;101430.81;4877700;28;127591;-63
2021/09/01 03:38:15;;;;;;;7.05;5.05;;;;;;;11.48;70.50;101421.34;4877478;28;128342;-69
2021/09/01 03:40:41;;;;;;;6.13;4.88;;;;;;;11.47;70.85;101433.19;4881085;28;98453;-70
2021/09/01 03:43:09;;;;;;;7.30;4.90;;;;;;;11.46;71.15;101432.38;4881944;28;97829;-63
2021/09/01 03:45:36;;;;;;;6.28;4.90;;;;;;;11.45;71.30;101433.44;4880442;28;98678;-63
2021/09/01 03:48:03;;;;;;;7.25;5.20;;;;;;;11.45;70.57;101435.34;4880703;28;98716;-69
2021/09/01 03:50:29;;;;;;;5.65;4.75;;;;;;;11.45;71.11;101429.94;4887055;28;98660;-70
2021/09/01 03:52:55;;;;;;;7.68;5.07;;;;;;;11.44;70.56;101434.53;4914181;28;98861;-62
2021/09/01 03:55:21;;;;;;;7.13;5.20;;;;;;;11.43;71.06;101427.47;4898678;28;128169;-69
2021/09/01 03:57:48;;;;;;;8.32;5.20;;;;;;;11.43;70.75;101427.47;4880252;28;118958;-69
2021/09/01 04:00:15;;;;;;;6.43;5.00;;;;;;;11.42;70.75;101430.44;4879753;28;100086;-63
2021/09/01 04:02:41;;;;;;;7.88;4.90;;;;;;;11.39;71.17;101426.34;4878242;28;97931;-62
2021/09/01 04:05:07;;;;;;;8.30;5.05;;;;;;;11.38;71.04;101423.91;4879753;28;99109;-69
2021/09/01 04:07:33;;;;;;;6.53;5.15;;;;;;;11.34;71.16;101428.16;4900607;28;98884;-69
2021/09/01 04:09:59;;;;;;;7.00;5.60;;;;;;;11.30;70.97;101433.25;4890491;28;107215;-71
2021/09/01 04:12:25;;;;;;;6.72;4.93;;;;;;;11.27;71.51;101434.53;4880885;28;122361;-63
2021/09/01 04:14:51;;;;;;;6.80;5.28;;;;;;;11.26;71.33;101435.63;4885322;28;127996;-69
2021/09/01 04:17:17;;;;;;;7.55;5.47;;;;;;;11.26;70.85;101440.19;4902492;28;127683;-63
2021/09/01 04:19:44;;;;;;;6.50;5.25;;;;;;;11.25;71.35;101433.19;4901260;28;127192;-63
2021/09/01 04:22:10;;;;;;;7.43;5.70;;;;;;;11.25;71.21;101444.78;4901452;28;123780;-69
2021/09/01 04:24:36;;;;;;;7.60;5.90;;;;;;;11.22;71.57;101439.06;4905297;28;126717;-69
2021/09/01 04:27:02;;;;;;;6.28;5.50;;;;;;;11.20;71.70;101441.19;4882262;28;128069;-69
2021/09/01 04:29:28;;;;;;;7.55;5.60;;;;;;;11.20;71.11;101450.13;4884386;28;98571;-63
2021/09/01 04:31:54;;;;;;;7.25;5.50;;;;;;;11.22;71.71;101449.84;4882714;28;122709;-69
2021/09/01 04:34:20;;;;;;;7.72;5.80;;;;;;;11.22;71.42;101442.56;4900898;28;99871;-69
2021/09/01 04:36:46;;;;;;;7.53;5.38;;;;;;;11.25;71.22;101446.66;4902389;28;107574;-69
2021/09/01 04:39:12;;;;;;;7.13;4.95;;;;;;;11.28;71.74;101448.88;4885940;28;97770;-63
2021/09/01 04:41:38;;;;;;;7.70;6.03;;;;;;;11.27;70.82;101448.03;4884775;28;113541;-63
2021/09/01 04:44:04;;;;;;;7.55;6.05;;;;;;;11.28;71.02;101444.31;4882241;28;116984;-63
2021/09/01 04:46:30;;;;;;;7.55;6.07;;;;;;;11.29;71.08;101451.31;4886173;28;126992;-69
2021/09/01 04:48:56;;;;;;;9.50;5.70;;;;;;;11.30;71.52;101438.63;4879834;28;127400;-63
2021/09/01 04:51:22;;;;;;;9.43;5.80;;;;;;;11.34;71.29;101441.66;4879309;28;122158;-65
2021/09/01 04:53:48;;;;;;;8.75;6.10;;;;;;;11.35;71.70;101440.59;4880147;28;99096;-69
2021/09/01 04:56:14;;;;;;;9.70;6.97;;;;;;;11.40;71.75;101444.19;4879257;28;128983;-67
2021/09/01 04:58:40;;;;;;;8.45;6.30;;;;;;;11.43;71.75;101454.47;4879581;28;125736;-63
2021/09/01 05:01:07;;;;;;;8.45;6.40;;;;;;;11.50;71.62;101446.19;4879313;28;123218;-63
2021/09/01 05:03:33;;;;;;;9.57;7.03;;;;;;;11.54;71.72;101450.03;4878604;28;124908;-69
2021/09/01 05:05:59;;;;;;;8.55;7.20;;;;;;;11.61;72.02;101447.97;4879241;28;119270;-69
2021/09/01 05:08:25;;;;;;;8.15;6.35;;;;;;;11.67;71.51;101438.88;4898751;28;126989;-69
2021/09/01 05:10:51;;;;;;;9.63;7.18;;;;;;;11.68;71.57;101440.50;4878629;28;122016;-63
2021/09/01 05:13:17;;;;;;;8.95;6.97;;;;;;;11.72;71.72;101448.94;4891806;28;126873;-63
2021/09/01 05:15:43;;;;;;;9.95;7.38;;;;;;;11.74;71.55;101450.28;4898896;28;98395;-69
2021/09/01 05:18:09;;;;;;;10.15;7.25;;;;;;;11.78;71.72;101453.31;4860579;28;127106;-69
2021/09/01 05:20:38;;;;;;;9.60;7.40;;;;;;;11.76;71.98;101458.97;4900573;28;98476;-63
2021/09/01 05:23:06;;;;;;;10.35;7.85;;;;;;;11.80;72.00;101454.69;4878808;28;101244;-69
2021/09/01 05:25:54;;;;;;;10.60;7.47;;;;;;;11.81;71.84;101463.63;4895678;28;98756;-69
2021/09/01 05:28:20;;;;;;;10.65;7.60;;;;;;;11.92;71.82;101462.72;4891393;28;98157;-69
2021/09/01 05:30:47;;;;;;;10.77;7.90;;;;;;;12.07;71.98;101462.06;4875688;28;114213;-69
2021/09/01 05:33:13;;;;;;;10.38;7.82;;;;;;;12.20;71.71;101458.97;4879234;28;98980;-63
2021/09/01 05:35:39;;;;;;;11.77;8.00;;;;;;;12.37;71.16;101460.75;4878782;28;128229;-69
2021/09/01 05:38:05;;;;;;;10.27;8.38;;;;;;;12.51;71.48;101464.69;4879512;28;110373;-63
2021/09/01 05:40:31;;;;;;;11.73;8.43;;;;;;;12.61;71.24;101470.19;4895214;28;122646;-69
2021/09/01 05:42:58;;;;;;;11.90;8.70;;;;;;;12.73;71.25;101465.44;4881535;28;117443;-69
2021/09/01 05:45:24;;;;;;;12.23;7.90;;;;;;;12.85;71.21;101467.97;4876964;28;126625;-63
2021/09/01 05:47:51;;;;;;;10.82;8.88;;;;;;;13.01;71.04;101477.03;4892510;28;126994;-63
2021/09/01 05:50:17;;;;;;;11.10;8.77;;;;;;;13.24;70.04;101468.56;4880260;28;98168;-63
2021/09/01 05:52:43;;;;;;;13.90;9.88;;;;;;;13.40;70.42;101474.91;4876746;28;122175;-69
2021/09/01 05:55:10;;;;;;;11.70;8.63;;;;;;;13.58;70.45;101484.47;4874350;28;127203;-70
2021/09/01 05:57:38;;;;;;;12.63;8.93;;;;;;;13.76;69.92;101485.91;4879360;28;98118;-69
2021/09/01 06:00:15;;;;;;;12.57;9.73;;;;;;;13.80;70.01;101492.44;4880646;28;108356;-69
2021/09/01 06:02:59;;;;;;;10.55;9.40;;;;;;;13.91;70.04;101494.13;4891731;28;98467;-70
2021/09/01 06:05:25;;;;;;;12.80;9.68;;;;;;;13.94;70.09;101498.19;4877373;28;114032;-63
2021/09/01 06:07:57;;;;;;;12.65;9.20;;;;;;;13.93;70.37;101496.56;4880017;28;101763;-69
2021/09/01 06:10:29;;;;;;;12.67;10.87;;;;;;;14.00;70.36;101495.22;4870907;28;98088;-70
2021/09/01 06:12:57;;;;;;;13.13;9.65;;;;;;;14.09;70.01;101495.53;4879548;28;98429;-63
2021/09/01 06:15:24;;;;;;;12.43;9.55;;;;;;;14.19;70.07;101489.34;4897650;28;98446;-70
2021/09/01 06:17:50;;;;;;;12.15;9.07;;;;;;;14.36;70.05;101487.19;4879044;28;98183;-63
2021/09/01 06:20:16;;;;;;;11.70;10.07;;;;;;;14.45;69.16;101496.44;4878246;28;98068;-70
2021/09/01 06:22:42;;;;;;;11.02;9.40;;;;;;;14.50;69.78;101506.50;4877699;28;98639;-70
2021/09/01 06:25:09;;;;;;;10.55;9.20;;;;;;;14.61;69.55;101510.88;4891889;28;129096;-63
2021/09/01 06:27:35;;;;;;;11.95;9.75;;;;;;;14.76;69.19;101517.41;4878483;28;98131;-69
2021/09/01 06:30:01;;;;;;;12.52;9.48;;;;;;;14.87;68.86;101519.88;4878315;28;122556;-63
2021/09/01 06:32:27;;;;;;;11.93;9.15;;;;;;;14.95;68.76;101522.03;4877745;28;110447;-69
2021/09/01 06:34:53;;;;;;;10.50;9.38;;;;;;;15.02;68.78;101518.25;4874361;28;127600;-63
2021/09/01 06:37:19;;;;;;;12.70;9.50;;;;;;;15.07;68.57;101524.47;4877806;28;126206;-63
2021/09/01 06:39:45;;;;;;;11.82;9.55;;;;;;;15.18;68.06;101530.75;4861564;28;122206;-63
2021/09/01 06:42:11;;;;;;;13.63;10.05;;;;;;;15.26;68.16;101530.19;4875248;28;121399;-63
2021/09/01 06:44:37;;;;;;;13.77;9.95;;;;;;;15.36;67.87;101518.47;4883459;28;128095;-69
2021/09/01 06:47:05;;;;;;;12.13;9.65;;;;;;;15.54;67.91;101531.50;4877931;28;98305;-70
2021/09/01 06:49:31;;;;;;;17.40;10.13;;;;;;;15.98;66.72;101525.41;4879553;28;98307;-63
2021/09/01 06:51:57;;;;;;;15.48;9.57;;;;;;;16.61;65.51;101527.53;4889057;28;116673;-63
2021/09/01 06:54:23;;;;;;;11.18;9.98;;;;;;;16.67;65.17;101523.72;4885672;28;128068;-70
2021/09/01 06:56:49;;;;;;;11.23;9.68;;;;;;;16.61;65.87;101522.91;4877730;28;127481;-69
2021/09/01 06:59:15;;;;;;;11.10;9.57;;;;;;;16.80;65.66;101520.38;4884100;28;121397;-70
2021/09/01 07:01:41;;;;;;;12.50;9.77;;;;;;;16.96;65.16;101520.25;4877029;28;123888;-70
2021/09/01 07:04:07;;;;;;;10.82;9.52;;;;;;;17.23;64.74;101519.75;4877503;28;128838;-70
2021/09/01 07:06:33;;;;;;;10.30;8.63;;;;;;;17.49;64.19;101520.31;4877655;28;127927;-70
2021/09/01 07:08:59;;;;;;;9.70;8.70;;;;;;;17.67;64.15;101525.03;4892740;28;97735;-69
2021/09/01 07:11:25;;;;;;;9.93;8.38;;;;;;;17.72;64.09;101530.41;4878860;28;98194;-64
2021/09/01 07:13:51;;;;;;;9.70;8.57;;;;;;;18.03;63.59;101532.81;4888221;28;128220;-70
2021/09/01 07:16:17;;;;;;;10.60;8.05;;;;;;;18.26;62.88;101540.16;4878882;28;123347;-63
2021/09/01 07:18:43;;;;;;;9.65;8.45;;;;;;;18.37;62.71;101544.38;4891949;28;122343;-63
2021/09/01 07:21:09;;;;;;;8.65;7.75;;;;;;;18.58;62.23;101547.63;4877623;28;127703;-63
2021/09/01 07:23:35;;;;;;;10.15;8.50;;;;;;;18.51;61.72;101540.91;4881921;28;98520;-63
2021/09/01 07:26:02;;;;;;;10.07;8.43;;;;;;;18.26;62.04;101540.16;4880609;28;98177;-70
2021/09/01 07:28:28;;;;;;;10.98;7.88;;;;;;;18.11;62.22;101534.91;4880698;28;98044;-70
2021/09/01 07:30:54;;;;;;;8.18;7.35;;;;;;;18.26;61.67;101531.97;4879826;28;98798;-63
2021/09/01 07:33:20;;;;;;;10.52;8.15;;;;;;;18.51;61.97;101544.47;4880341;28;116678;-65
2021/09/01 07:35:46;;;;;;;10.27;7.72;;;;;;;18.68;61.61;101545.88;4880954;28;97933;-70
2021/09/01 07:38:13;;;;;;;10.85;8.00;;;;;;;18.59;61.46;101540.28;4880728;28;97990;-63
2021/09/01 07:40:39;;;;;;;9.68;7.63;;;;;;;18.75;61.72;101538.97;4888988;28;102404;-70
2021/09/01 07:43:05;;;;;;;9.93;7.72;;;;;;;18.94;60.78;101532.66;4897643;28;128111;-70
2021/09/01 07:45:31;;;;;;;9.25;7.78;;;;;;;19.24;60.32;101537.63;4899197;28;126364;-63
2021/09/01 07:47:57;;;;;;;8.40;7.43;;;;;;;19.55;59.60;101540.63;4902348;28;100291;-70
2021/09/01 07:50:29;;;;;;;8.43;7.40;;;;;;;19.81;59.31;101540.19;4903171;28;126589;-70
2021/09/01 07:52:56;;;;;;;9.48;7.50;;;;;;;20.04;58.14;101550.09;4901770;28;98647;-70
2021/09/01 07:55:22;;;;;;;9.13;7.40;;;;;;;20.26;57.56;101543.88;4890496;28;98534;-64
2021/09/01 07:57:48;;;;;;;9.60;7.57;;;;;;;20.58;56.75;101559.34;4883538;28;111633;-64
2021/09/01 08:00:15;;;;;;;9.57;7.47;;;;;;;20.98;56.10;101554.03;4864865;28;126404;-70
2021/09/01 08:02:41;;;;;;;8.63;7.70;;;;;;;21.55;54.63;101556.19;4883933;28;98884;-70
2021/09/01 08:05:08;;;;;;;8.23;7.28;;;;;;;22.12;53.94;101552.69;4883669;28;97915;-64
2021/09/01 08:07:34;;;;;;;11.07;7.47;;;;;;;22.68;52.36;101562.03;4884059;28;106922;-64
2021/09/01 08:10:00;;;;;;;9.25;6.55;;;;;;;23.18;52.10;101565.06;4884272;28;99276;-70
2021/09/01 08:12:26;;;;;;;8.02;6.78;;;;;;;23.84;50.11;101563.94;4882937;28;115673;-70
2021/09/01 08:14:52;;;;;;;7.93;7.13;;;;;;;24.38;49.24;101581.47;4883439;28;122475;-64
2021/09/01 08:17:18;;;;;;;9.60;7.53;;;;;;;24.83;48.47;101580.00;4882775;28;115850;-64
2021/09/01 08:19:45;;;;;;;7.57;6.78;;;;;;;25.45;47.31;101584.63;4864598;28;122916;-64
2021/09/01 08:22:12;;;;;;;8.10;6.93;;;;;;;26.18;45.76;101581.16;4883509;28;97932;-65
2021/09/01 08:24:38;;;;;;;7.60;6.72;;;;;;;26.90;44.78;101587.66;4882912;28;118557;-64
2021/09/01 08:27:09;;;;;;;9.02;6.80;;;;;;;27.28;44.84;101588.34;4865331;28;98254;-70
2021/09/01 08:29:36;;;;;;;9.27;7.43;;;;;;;27.32;43.44;101589.25;4884010;28;98894;-64
2021/09/01 08:32:03;;;;;;;10.65;7.40;;;;;;;28.45;42.19;101593.25;4880453;28;118250;-64
2021/09/01 08:34:29;;;;;;;7.28;6.38;;;;;;;29.24;41.08;101592.94;4882267;28;113115;-71
2021/09/01 08:36:55;;;;;;;7.53;6.50;;;;;;;28.57;42.00;101593.13;4901325;28;122780;-64
2021/09/01 08:39:21;;;;;;;7.35;6.65;;;;;;;29.50;39.31;101597.75;4902899;28;99285;-71
2021/09/01 08:41:47;;;;;;;7.10;6.40;;;;;;;30.28;38.07;101598.25;4901598;28;127852;-71
2021/09/01 08:44:13;;;;;;;7.32;5.82;;;;;;;31.09;37.65;101596.94;4900772;28;117089;-71
2021/09/01 08:46:39;;;;;;;7.25;6.38;;;;;;;31.10;37.01;101600.53;4902506;28;99663;-64
2021/09/01 08:49:05;;;;;;;7.63;6.10;;;;;;;30.31;38.47;101593.94;4899752;28;120753;-64
2021/09/01 08:51:32;;;;;;;6.60;5.53;;;;;;;31.17;36.95;101595.84;4901878;28;97997;-64
2021/09/01 08:53:58;;;;;;;8.13;6.50;;;;;;;31.03;36.80;101590.91;4897223;28;126908;-64
2021/09/01 08:56:25;;;;;;;7.20;5.88;;;;;;;30.11;37.92;101592.44;4881238;28;111089;-65
2021/09/01 08:58:51;;;;;;;7.50;6.68;;;;;;;30.68;37.31;101579.31;4894929;28;127873;-64
2021/09/01 09:01:53;;;;;;;7.10;6.40;;;;;;;31.01;37.72;101573.00;4900577;28;127868;-71
2021/09/01 09:04:27;;;;;;;7.30;6.60;;;;;;;30.27;37.68;101585.56;4900989;28;98169;-65
2021/09/01 09:06:57;;;;;;;7.20;6.28;;;;;;;29.76;38.61;101572.03;4901820;28;97990;-65
2021/09/01 09:09:35;;;;;;;6.97;6.28;;;;;;;30.44;36.64;101578.63;4902248;28;108610;-71
2021/09/01 09:12:03;;;;;;;6.93;6.22;;;;;;;32.24;34.50;101576.47;4901361;28;109047;-71
2021/09/01 09:14:33;;;;;;;7.07;6.32;;;;;;;33.04;33.58;101573.66;4902166;28;98131;-72
2021/09/01 09:17:05;;;;;;;6.18;5.53;;;;;;;32.65;34.20;101579.88;4902155;28;97879;-71
2021/09/01 09:19:50;;;;;;;5.68;5.10;;;;;;;33.83;33.51;101566.16;4901736;28;98804;-71
2021/09/01 09:22:34;;;;;;;5.20;4.70;;;;;;;33.61;33.23;101573.78;4901991;28;97815;-65
2021/09/01 09:25:15;;;;;;;4.68;4.28;;;;;;;33.21;34.28;101561.75;4900953;28;98607;-65
2021/09/01 09:27:51;;;;;;;4.90;4.28;;;;;;;33.52;33.92;101553.78;4902832;28;98013;-72
2021/09/01 09:30:20;;;;;;;5.00;4.55;;;;;;;33.98;32.51;101549.41;4901495;28;98863;-71
2021/09/01 09:33:06;;;;;;;4.72;4.20;;;;;;;35.05;31.71;101563.00;4888912;28;98180;-71
2021/09/01 09:36:00;;;;;;;4.95;4.45;;;;;;;35.99;29.84;101567.47;4882202;28;98205;-65
2021/09/01 09:38:38;;;;;;;4.80;4.40;;;;;;;36.73;28.80;101565.00;4883140;28;97886;-72
2021/09/01 09:41:18;;;;;;;4.40;4.00;;;;;;;37.02;27.28;101557.03;4900947;28;98389;-72
2021/09/01 09:43:44;;;;;;;4.38;4.03;;;;;;;37.78;26.98;101554.56;4902231;28;98424;-71
2021/09/01 09:46:11;;;;;;;4.60;4.20;;;;;;;38.22;25.76;101549.75;4899096;28;127357;-65
2021/09/01 09:48:44;;;;;;;5.15;4.15;;;;;;;37.96;26.32;101537.38;4901983;28;97720;-65
2021/09/01 09:51:16;;;;;;;4.43;4.03;;;;;;;38.71;26.36;101546.31;4899704;28;98725;-65
2021/09/01 09:53:45;;;;;;;4.60;4.20;;;;;;;39.20;24.89;101538.75;4902232;28;98555;-72
2021/09/01 09:56:25;;;;;;;4.60;4.20;;;;;;;39.39;25.73;101533.50;4900572;28;98184;-65
2021/09/01 09:58:54;;;;;;;5.80;4.35;;;;;;;39.54;24.30;101537.53;4901644;28;97919;-72
2021/09/01 10:01:21;;;;;;;5.13;4.63;;;;;;;39.24;24.53;101536.66;4886802;28;98059;-72
2021/09/01 10:03:48;;;;;;;4.60;4.10;;;;;;;38.77;25.04;101530.50;4882178;28;98068;-64
2021/09/01 10:06:18;;;;;;;4.32;4.00;;;;;;;39.17;24.99;101533.19;4879928;28;98014;-64
2021/09/01 10:08:52;;;;;;;4.82;4.50;;;;;;;39.65;23.76;101535.19;4882552;28;97995;-71
2021/09/01 10:11:23;;;;;;;4.75;4.28;;;;;;;39.71;23.96;101539.09;4881507;28;99283;-63
2021/09/01 10:13:51;;;;;;;5.07;3.75;;;;;;;39.30;24.42;101525.66;4882227;28;98935;-69
2021/09/01 10:16:20;;;;;;;4.07;3.67;;;;;;;38.55;25.50;101519.72;4881554;28;98213;-63
2021/09/01 10:19:08;;;;;;;4.68;4.25;;;;;;;39.49;24.85;101519.09;4882385;28;98027;-68
2021/09/01 10:21:37;;;;;;;4.60;4.20;;;;;;;39.52;24.12;101521.03;4881576;28;99312;-69
2021/09/01 10:24:41;;;;;;;4.25;3.85;;;;;;;38.26;25.99;101511.06;4882912;28;99033;-68
2021/09/01 10:27:11;;;;;;;4.32;3.92;;;;;;;38.27;25.36;101512.63;4880792;28;116068;-69
2021/09/01 10:29:42;;;;;;;4.43;4.03;;;;;;;37.68;25.71;101507.75;4883408;28;98306;-68
2021/09/01 10:32:29;;;;;;;4.30;3.90;;;;;;;38.10;26.22;101505.38;4881185;28;99096;-63
2021/09/01 10:35:16;;;;;;;4.88;4.25;;;;;;;38.91;25.55;101513.31;4882727;28;98649;-63
2021/09/01 10:37:55;;;;;;;3.92;3.63;;;;;;;37.37;26.90;101504.25;4880980;28;98201;-63
2021/09/01 10:40:21;;;;;;;5.38;4.50;;;;;;;35.15;28.70;101509.72;4882108;28;97931;-68
2021/09/01 10:43:00;;;;;;;5.32;4.05;;;;;;;37.28;26.16;101518.88;4880924;28;98309;-63
2021/09/01 10:45:33;;;;;;;5.10;4.65;;;;;;;36.45;27.36;101512.03;4882154;28;98730;-63
2021/09/01 10:48:03;;;;;;;4.60;4.20;;;;;;;34.66;28.67;101508.00;4881325;28;98064;-67
2021/09/01 10:50:51;;;;;;;6.13;4.53;;;;;;;34.37;29.48;101510.91;4880842;28;97937;-63
2021/09/01 10:53:27;;;;;;;4.93;4.43;;;;;;;35.57;27.74;101504.19;4880342;28;97918;-68
2021/09/01 10:56:05;;;;;;;5.38;4.43;;;;;;;34.69;28.99;101504.38;4881453;28;98707;-63
2021/09/01 10:58:39;;;;;;;4.90;4.40;;;;;;;34.08;29.35;101509.44;4881367;28;97830;-63
2021/09/01 11:01:22;;;;;;;5.85;5.20;;;;;;;35.32;28.49;101507.19;4879642;28;97911;-68
2021/09/01 11:04:04;;;;;;;5.20;4.70;;;;;;;35.48;28.43;101509.44;4880382;28;98922;-63
2021/09/01 11:06:37;;;;;;;5.20;4.70;;;;;;;33.80;30.83;101511.06;4881396;28;98104;-68
2021/09/01 11:09:12;;;;;;;5.40;4.90;;;;;;;34.26;29.84;101512.94;4882071;28;98136;-63
2021/09/01 11:11:53;;;;;;;5.30;4.80;;;;;;;34.30;29.98;101501.75;4881487;28;97846;-68
2021/09/01 11:14:40;;;;;;;5.07;4.68;;;;;;;34.49;29.81;101514.50;4881323;28;98536;-68
2021/09/01 11:17:09;;;;;;;6.07;4.90;;;;;;;33.47;31.43;101515.88;4897396;28;98139;-68
2021/09/01 11:19:36;;;;;;;5.70;4.70;;;;;;;34.11;30.20;101519.78;4900242;28;97844;-66
2021/09/01 11:22:10;;;;;;;6.38;4.90;;;;;;;34.31;30.14;101515.34;4899619;28;97803;-68
2021/09/01 11:25:03;;;;;;;5.38;4.88;;;;;;;33.80;31.20;101516.66;4900063;28;98201;-66